Huvudsida
METAR-TAF:

METAR-TAF

Flygplatser :

Buochs flygplats

Buochs, Schweiz

latitud: 46-58-28N, longitud: 8-23-49E, höjd: 449 m

Aktuellt väderrapport

Denna rapport gjordes för 39 minuter sedan, klockan 21:50 UTC
Vind 4 kt från väst/sydväst
Temperatur 12°C
Fuktighet 54%
Tryck 1024 hPa
Sikt 10 km eller mer
Inga moln under 1 500 m eller inga cumulonimbus

METAR: LSZC 082150Z AUTO 24004KT CAVOK 12/03 Q1024

Tid: 00:29 (22:29 UTC)

Väderprognos

Denna rapport gjordes för 8 timmar och 4 minuter sedan, klockan 14:25 UTC
Prognos gäller från 08 kl. 15 UTC till 08 kl. 24 UTC
Vind 5 kt från ost
Sikt 10 km eller mer
Inga moln under 1 500 m eller inga cumulonimbus
Temporärt
från 08 kl. 15 UTC till 08 kl. 24 UTC
Sikt 10 km eller mer
Få moln på en höjd av 8000 ft

TAF: LSZC 081425Z 0815/0824 09005KT CAVOK TEMPO 0815/0824 9999 FEW080

Aktuella väderrapporter och prognoser från 4000 flygplatser (METAR- och TAF-rapporter).

De tillgängliga stationerna syns som gula och röda prickar på kartan.

För musen över prickarna för att se namnen på stationerna.

Klicka sedan för att få väderrapporter och prognoser.

För att ändra kartan: Klicka på de gröna knapparna med ett svart kors på för att zooma in; den gröna knappen med ett streck på för att zooma ut; eller på de gröna pilarna för angränsande kartor.


METAR-TAF: